Time;durP1;ratioP1;P1;durP2;ratioP2;P2;SDS_P1;SDS_P2;PMS_P1;PMS_P2;Temp;Humidity;BMP_temperature;BMP_pressure;BME280_temperature;BME280_humidity;BME280_pressure;Samples;Min_cycle;Max_cycle;Signal;HPM_P1;HPM_P2
2024/01/12 00:00:28;;;;;;;68.80;29.53;;;-3.30;83.10;;;;;;4926134;28;20223;-71
2024/01/12 00:02:54;;;;;;;71.90;28.67;;;-3.30;83.10;;;;;;4924911;29;20219;-71
2024/01/12 00:05:19;;;;;;;65.37;28.57;;;-3.30;83.10;;;;;;4928506;29;20185;-71
2024/01/12 00:07:45;;;;;;;58.43;27.53;;;-3.30;83.10;;;;;;4925581;28;20189;-69
2024/01/12 00:10:11;;;;;;;68.40;28.40;;;-3.20;83.10;;;;;;4925201;28;20225;-71
2024/01/12 00:12:36;;;;;;;78.57;32.53;;;-3.20;83.00;;;;;;4923516;29;20208;-71
2024/01/12 00:15:05;;;;;;;62.33;27.80;;;-3.20;83.00;;;;;;4929571;28;20268;-70
2024/01/12 00:17:31;;;;;;;70.70;30.80;;;-3.40;82.70;;;;;;4935319;28;20668;-69
2024/01/12 00:19:57;;;;;;;74.82;31.63;;;-3.40;82.70;;;;;;4927004;28;20725;-69
2024/01/12 00:22:22;;;;;;;68.40;30.00;;;-3.40;82.80;;;;;;4937244;28;20203;-71
2024/01/12 00:24:49;;;;;;;71.90;31.00;;;-3.20;83.00;;;;;;4944591;28;20201;-71
2024/01/12 00:27:14;;;;;;;65.75;29.95;;;-3.20;82.50;;;;;;4934923;29;20217;-71
2024/01/12 00:29:40;;;;;;;72.50;28.30;;;-3.40;81.90;;;;;;4928900;28;20188;-69
2024/01/12 00:32:06;;;;;;;70.87;30.20;;;-3.50;82.10;;;;;;4927801;28;20228;-72
2024/01/12 00:34:32;;;;;;;75.35;31.98;;;-3.70;82.40;;;;;;4933212;28;20196;-70
2024/01/12 00:36:58;;;;;;;88.10;31.63;;;-3.70;82.80;;;;;;4929651;29;20185;-71
2024/01/12 00:39:23;;;;;;;81.87;33.60;;;-3.70;83.00;;;;;;4930996;28;20756;-71
2024/01/12 00:41:50;;;;;;;79.90;33.67;;;-3.80;83.00;;;;;;4925789;28;20689;-70
2024/01/12 00:44:18;;;;;;;75.05;31.17;;;-3.70;83.10;;;;;;4924086;29;20224;-70
2024/01/12 00:46:44;;;;;;;80.57;31.10;;;-3.70;83.10;;;;;;4926701;28;20204;-71
2024/01/12 00:49:10;;;;;;;73.38;31.50;;;-3.70;83.30;;;;;;4926692;28;20184;-70
2024/01/12 00:51:36;;;;;;;69.35;31.42;;;-3.70;83.10;;;;;;4938191;28;20202;-70
2024/01/12 00:54:02;;;;;;;74.80;30.53;;;-3.70;83.30;;;;;;4933256;28;20212;-71
2024/01/12 00:56:28;;;;;;;74.57;30.30;;;-3.80;83.30;;;;;;4942891;28;20185;-70
2024/01/12 00:58:53;;;;;;;77.93;30.77;;;-3.80;83.30;;;;;;4934384;29;20967;-70
2024/01/12 01:01:19;;;;;;;70.50;32.40;;;-3.90;83.30;;;;;;4930736;28;20476;-72
2024/01/12 01:03:45;;;;;;;76.53;32.90;;;-3.90;83.60;;;;;;4933506;28;20216;-71
2024/01/12 01:06:10;;;;;;;74.15;32.17;;;-4.00;83.60;;;;;;4927025;29;20189;-70
2024/01/12 01:08:36;;;;;;;91.07;33.30;;;-4.00;84.00;;;;;;4927502;29;20196;-70
2024/01/12 01:11:02;;;;;;;77.20;31.77;;;-4.00;84.30;;;;;;4931792;28;20740;-71
2024/01/12 01:13:28;;;;;;;74.73;32.90;;;-4.00;84.30;;;;;;4943641;28;20196;-71
2024/01/12 01:15:53;;;;;;;71.07;32.33;;;-3.90;84.40;;;;;;4933291;28;20525;-70
2024/01/12 01:18:19;;;;;;;80.20;32.43;;;-3.80;84.40;;;;;;4935407;29;20192;-73
2024/01/12 01:20:44;;;;;;;77.30;31.80;;;-3.90;84.40;;;;;;4957798;28;20205;-71
2024/01/12 01:23:10;;;;;;;76.30;31.73;;;-3.90;84.30;;;;;;4935366;28;20217;-70
2024/01/12 01:25:36;;;;;;;67.07;30.00;;;-3.80;84.30;;;;;;4938983;28;20594;-68
2024/01/12 01:28:02;;;;;;;73.50;30.65;;;-3.80;83.80;;;;;;4937585;28;20291;-69
2024/01/12 01:30:28;;;;;;;77.57;28.77;;;-3.80;83.10;;;;;;4928004;28;20323;-71
2024/01/12 01:32:54;;;;;;;70.75;29.30;;;-4.00;82.50;;;;;;4935699;28;20189;-72
2024/01/12 01:35:19;;;;;;;67.93;30.93;;;-4.10;82.70;;;;;;4932757;29;20180;-69
2024/01/12 01:37:45;;;;;;;76.60;32.67;;;-4.20;83.40;;;;;;4931593;29;20184;-71
2024/01/12 01:40:11;;;;;;;71.50;33.33;;;-4.20;83.70;;;;;;4925672;28;20205;-72
2024/01/12 01:42:37;;;;;;;75.50;32.37;;;-4.20;83.80;;;;;;4934824;28;20219;-72
2024/01/12 01:45:03;;;;;;;75.80;31.63;;;-4.10;84.00;;;;;;4940311;29;20738;-70
2024/01/12 01:47:30;;;;;;;75.17;31.80;;;-4.00;84.30;;;;;;4934990;28;20192;-71
2024/01/12 01:49:56;;;;;;;67.85;29.33;;;-4.00;84.30;;;;;;4922666;28;20532;-69
2024/01/12 01:52:25;;;;;;;66.57;31.42;;;-3.90;84.00;;;;;;4929601;28;20181;-70
2024/01/12 01:54:52;;;;;;;70.63;31.35;;;-4.00;84.00;;;;;;4926934;28;20200;-70
2024/01/12 01:57:19;;;;;;;68.93;29.08;;;-4.00;84.00;;;;;;4932592;29;20283;-70
2024/01/12 01:59:45;;;;;;;81.07;32.47;;;-3.90;84.00;;;;;;4931880;28;20196;-69
2024/01/12 02:02:11;;;;;;;70.37;31.33;;;-3.80;84.30;;;;;;4925772;29;20185;-71
2024/01/12 02:04:37;;;;;;;71.25;30.45;;;-3.80;84.10;;;;;;4931179;28;20866;-71
2024/01/12 02:07:03;;;;;;;74.97;32.03;;;-3.80;84.10;;;;;;4931483;28;20220;-71
2024/01/12 02:09:34;;;;;;;67.13;28.90;;;-3.80;84.10;;;;;;4929890;28;20200;-71
2024/01/12 02:11:59;;;;;;;72.85;31.05;;;-3.80;84.10;;;;;;4926693;29;20192;-70
2024/01/12 02:14:25;;;;;;;74.30;27.93;;;-3.80;83.80;;;;;;4933043;29;20192;-70
2024/01/12 02:16:54;;;;;;;68.10;29.53;;;-3.80;83.70;;;;;;4933462;28;20203;-71
2024/01/12 02:19:19;;;;;;;66.40;29.48;;;-3.90;83.30;;;;;;4934553;29;20379;-71
2024/01/12 02:21:45;;;;;;;78.50;28.10;;;-3.90;83.00;;;;;;4937025;29;20301;-70
2024/01/12 02:24:11;;;;;;;63.03;29.27;;;-4.00;82.80;;;;;;4926199;29;20343;-71
2024/01/12 02:26:36;;;;;;;63.57;28.40;;;-4.10;82.50;;;;;;4932684;29;20204;-69
2024/01/12 02:29:03;;;;;;;68.37;29.97;;;-4.10;82.70;;;;;;4933427;28;20911;-71
2024/01/12 02:31:29;;;;;;;67.38;29.05;;;-4.20;82.80;;;;;;4930525;29;20278;-70
2024/01/12 02:33:55;;;;;;;62.92;26.58;;;-4.20;82.80;;;;;;4932981;28;20197;-71
2024/01/12 02:36:20;;;;;;;82.73;28.67;;;-4.30;82.80;;;;;;4932510;29;20238;-69
2024/01/12 02:38:49;;;;;;;73.43;28.90;;;-4.30;83.00;;;;;;4928417;29;20221;-69
2024/01/12 02:41:15;;;;;;;78.63;33.10;;;-4.40;83.30;;;;;;4928080;28;20204;-71
2024/01/12 02:43:41;;;;;;;64.93;28.43;;;-4.40;83.60;;;;;;4932107;28;20238;-69
2024/01/12 02:46:06;;;;;;;78.53;33.33;;;-4.30;83.80;;;;;;4929065;29;20613;-70
2024/01/12 02:48:32;;;;;;;66.03;28.70;;;-4.30;84.00;;;;;;4928032;29;20186;-69
2024/01/12 02:50:58;;;;;;;70.40;31.13;;;-4.30;84.10;;;;;;4926608;29;21049;-71
2024/01/12 02:53:23;;;;;;;77.17;32.67;;;-4.30;84.10;;;;;;4935219;29;20181;-71
2024/01/12 02:55:49;;;;;;;81.70;32.03;;;-4.30;84.10;;;;;;4936302;28;20184;-70
2024/01/12 02:58:14;;;;;;;67.27;29.30;;;-4.40;84.00;;;;;;4929659;28;20238;-71
2024/01/12 03:00:40;;;;;;;76.67;31.47;;;-4.30;84.10;;;;;;4931313;28;20220;-72
2024/01/12 03:03:06;;;;;;;71.63;30.50;;;-4.30;84.10;;;;;;4931836;28;20854;-72
2024/01/12 03:05:31;;;;;;;80.23;33.00;;;-4.30;83.60;;;;;;4930292;28;20196;-71
2024/01/12 03:07:57;;;;;;;72.43;33.23;;;-4.40;83.60;;;;;;4925657;29;20196;-71
2024/01/12 03:10:23;;;;;;;70.70;30.10;;;-4.40;83.70;;;;;;4927202;28;20558;-69
2024/01/12 03:12:48;;;;;;;77.07;30.90;;;-4.50;83.80;;;;;;4930911;29;20276;-70
2024/01/12 03:15:14;;;;;;;86.53;34.13;;;-4.40;84.10;;;;;;4931333;28;20188;-71
2024/01/12 03:17:40;;;;;;;68.60;29.77;;;-4.40;84.40;;;;;;4927234;28;20572;-68
2024/01/12 03:20:08;;;;;;;80.30;33.08;;;-4.30;84.30;;;;;;4925031;28;20472;-71
2024/01/12 03:22:34;;;;;;;82.22;33.60;;;-4.20;84.60;;;;;;4928462;28;20532;-70
2024/01/12 03:25:00;;;;;;;79.25;31.83;;;-4.20;84.30;;;;;;4930780;29;20188;-71
2024/01/12 03:27:27;;;;;;;69.15;30.70;;;-4.10;84.30;;;;;;4930605;28;20238;-71
2024/01/12 03:29:52;;;;;;;73.40;31.65;;;-4.00;84.40;;;;;;4927970;29;20551;-71
2024/01/12 03:32:18;;;;;;;77.90;29.70;;;-4.00;84.10;;;;;;4927121;28;20185;-70
2024/01/12 03:34:43;;;;;;;81.50;30.20;;;-4.00;83.80;;;;;;4930872;28;20629;-70
2024/01/12 03:37:09;;;;;;;75.10;29.37;;;-4.00;83.70;;;;;;4930771;29;20189;-70
2024/01/12 03:39:35;;;;;;;76.03;32.93;;;-4.10;83.60;;;;;;4925528;28;20188;-71
2024/01/12 03:42:00;;;;;;;74.73;29.20;;;-4.20;83.40;;;;;;4928203;28;20219;-71
2024/01/12 03:44:26;;;;;;;65.63;28.77;;;-4.20;83.60;;;;;;4930696;28;20236;-71
2024/01/12 03:46:51;;;;;;;83.47;32.90;;;-4.20;83.30;;;;;;4930951;28;20680;-69
2024/01/12 03:49:18;;;;;;;72.60;32.10;;;-4.20;83.30;;;;;;4930156;28;20188;-69
2024/01/12 03:51:44;;;;;;;84.43;33.45;;;-4.30;83.10;;;;;;4926856;28;20654;-71
2024/01/12 03:54:10;;;;;;;71.17;30.87;;;-4.40;83.10;;;;;;4930642;29;20203;-69
2024/01/12 03:56:36;;;;;;;74.13;30.45;;;-4.30;83.60;;;;;;4932703;28;20181;-70
2024/01/12 03:59:01;;;;;;;83.27;32.73;;;-4.30;83.60;;;;;;4932195;28;20204;-73
2024/01/12 04:01:27;;;;;;;79.00;31.60;;;-4.20;83.40;;;;;;4924881;28;20495;-71
2024/01/12 04:03:53;;;;;;;77.07;30.07;;;-4.30;83.30;;;;;;4930369;28;20224;-71
2024/01/12 04:06:19;;;;;;;75.30;30.50;;;-4.40;83.40;;;;;;4929620;28;20275;-71
2024/01/12 04:08:44;;;;;;;74.40;31.47;;;-4.40;83.40;;;;;;4930427;29;20199;-70
2024/01/12 04:11:21;;;;;;;81.73;31.83;;;-4.30;83.60;;;;;;4927466;29;20471;-71
2024/01/12 04:13:46;;;;;;;86.78;33.17;;;-4.30;83.60;;;;;;4929715;29;21018;-69
2024/01/12 04:16:12;;;;;;;70.77;31.67;;;-4.40;83.60;;;;;;4931648;29;20276;-71
2024/01/12 04:18:37;;;;;;;70.23;31.20;;;-4.40;83.60;;;;;;4929449;28;20699;-69
2024/01/12 04:21:03;;;;;;;64.47;29.67;;;-4.40;83.60;;;;;;4929682;28;20212;-72
2024/01/12 04:23:29;;;;;;;73.90;32.30;;;-4.40;83.60;;;;;;4931111;28;20220;-73
2024/01/12 04:25:54;;;;;;;102.30;38.77;;;-4.40;83.70;;;;;;4932105;28;20436;-71
2024/01/12 04:28:20;;;;;;;80.87;38.57;;;-4.40;83.70;;;;;;4927852;28;20634;-73
2024/01/12 04:30:46;;;;;;;89.10;39.60;;;-4.40;83.70;;;;;;4926023;28;20287;-70
2024/01/12 04:33:11;;;;;;;104.57;41.70;;;-4.30;83.80;;;;;;4930214;29;20208;-71
2024/01/12 04:35:37;;;;;;;118.07;47.03;;;-4.30;84.00;;;;;;4929747;28;20207;-71
2024/01/12 04:38:02;;;;;;;109.73;46.40;;;-4.30;84.10;;;;;;4930621;28;20185;-71
2024/01/12 04:40:28;;;;;;;116.30;48.47;;;-4.40;84.10;;;;;;4924369;28;20324;-70
2024/01/12 04:42:54;;;;;;;116.00;46.93;;;-4.50;84.60;;;;;;4929060;29;20219;-71
2024/01/12 04:45:19;;;;;;;118.23;49.83;;;-4.50;84.70;;;;;;4930093;29;20190;-73
2024/01/12 04:47:45;;;;;;;113.00;47.70;;;-4.50;84.90;;;;;;4926939;29;20260;-70
2024/01/12 04:50:10;;;;;;;105.20;47.33;;;-4.50;84.90;;;;;;4924517;28;20209;-71
2024/01/12 04:52:36;;;;;;;102.73;46.43;;;-4.40;85.20;;;;;;4928472;29;20208;-71
2024/01/12 04:55:02;;;;;;;129.10;51.23;;;-4.40;85.20;;;;;;4927750;29;20527;-71
2024/01/12 04:57:28;;;;;;;120.20;46.80;;;-4.40;85.20;;;;;;4926587;29;20192;-71
2024/01/12 04:59:53;;;;;;;109.27;47.50;;;-4.40;85.00;;;;;;4928931;28;20435;-70
2024/01/12 05:02:19;;;;;;;103.33;44.43;;;-4.50;85.00;;;;;;4931021;29;20238;-71
2024/01/12 05:04:44;;;;;;;111.07;46.73;;;-4.40;85.00;;;;;;4935064;28;20649;-71
2024/01/12 05:07:10;;;;;;;117.03;51.10;;;-4.50;85.00;;;;;;4931491;29;20359;-71
2024/01/12 05:09:36;;;;;;;119.67;47.23;;;-4.50;84.90;;;;;;4929676;28;20196;-73
2024/01/12 05:12:04;;;;;;;126.87;50.30;;;-4.50;85.00;;;;;;4932007;28;20610;-72
2024/01/12 05:14:31;;;;;;;112.60;45.95;;;-4.50;85.00;;;;;;4931557;29;20180;-72
2024/01/12 05:16:57;;;;;;;107.63;43.92;;;-4.60;85.00;;;;;;4932442;28;20307;-70
2024/01/12 05:19:22;;;;;;;105.63;41.93;;;-4.60;85.20;;;;;;4928935;28;20906;-70
2024/01/12 05:21:48;;;;;;;108.03;43.00;;;-4.60;85.20;;;;;;4934706;28;20258;-69
2024/01/12 05:24:13;;;;;;;91.20;39.37;;;-4.50;85.30;;;;;;4935350;28;20208;-71
2024/01/12 05:26:39;;;;;;;89.40;38.63;;;-4.50;85.20;;;;;;4934447;28;20189;-71
2024/01/12 05:29:05;;;;;;;81.30;37.77;;;-4.50;85.00;;;;;;4932464;29;20207;-72
2024/01/12 05:31:31;;;;;;;87.35;37.08;;;-4.50;85.00;;;;;;4922919;28;20204;-72
2024/01/12 05:33:57;;;;;;;82.10;35.83;;;-4.60;84.90;;;;;;4924456;28;20189;-70
2024/01/12 05:36:22;;;;;;;83.47;33.87;;;-4.70;84.90;;;;;;4931656;28;20271;-71
2024/01/12 05:38:48;;;;;;;82.10;35.10;;;-4.70;84.90;;;;;;4928474;28;20185;-71
2024/01/12 05:41:14;;;;;;;85.80;33.53;;;-4.70;84.90;;;;;;4936917;28;20213;-71
2024/01/12 05:43:40;;;;;;;70.43;33.72;;;-4.80;84.90;;;;;;4935212;29;20223;-70
2024/01/12 05:46:06;;;;;;;83.20;33.90;;;-4.70;85.00;;;;;;4934878;29;20204;-72
2024/01/12 05:48:33;;;;;;;80.50;32.40;;;-4.70;85.20;;;;;;4930492;29;20203;-71
2024/01/12 05:50:58;;;;;;;87.53;36.03;;;-4.70;85.20;;;;;;4926498;28;20617;-71
2024/01/12 05:53:25;;;;;;;83.70;33.13;;;-4.60;85.20;;;;;;4926467;29;20185;-71
2024/01/12 05:55:52;;;;;;;72.07;29.75;;;-4.60;85.00;;;;;;4922297;28;20182;-72
2024/01/12 05:58:19;;;;;;;68.32;27.35;;;-4.70;84.90;;;;;;4924646;29;20273;-71
2024/01/12 06:00:46;;;;;;;72.18;31.60;;;-4.80;84.10;;;;;;4917561;28;20213;-73
2024/01/12 06:03:11;;;;;;;75.97;29.15;;;-5.00;83.60;;;;;;4927896;29;20227;-71
2024/01/12 06:05:37;;;;;;;73.57;29.43;;;-5.10;83.60;;;;;;4933938;29;20554;-71
2024/01/12 06:08:03;;;;;;;69.37;29.10;;;-5.10;83.80;;;;;;4928773;29;20191;-71
2024/01/12 06:10:28;;;;;;;71.67;28.00;;;-5.10;84.10;;;;;;4924630;28;20216;-71
2024/01/12 06:12:54;;;;;;;76.80;28.70;;;-5.10;84.10;;;;;;4943143;28;20173;-72
2024/01/12 06:15:19;;;;;;;80.40;33.70;;;-5.20;84.40;;;;;;4933152;29;20183;-71
2024/01/12 06:17:45;;;;;;;72.00;32.47;;;-5.20;84.60;;;;;;4929344;29;20185;-71
2024/01/12 06:20:11;;;;;;;79.43;34.43;;;-5.20;84.60;;;;;;4923083;28;20210;-71
2024/01/12 06:22:36;;;;;;;92.03;35.90;;;-5.30;84.70;;;;;;4934671;29;20200;-71
2024/01/12 06:25:03;;;;;;;78.40;30.90;;;-5.20;84.90;;;;;;4928024;29;20452;-71
2024/01/12 06:27:28;;;;;;;74.47;34.60;;;-5.20;85.00;;;;;;4932496;28;20189;-72
2024/01/12 06:29:54;;;;;;;92.43;37.57;;;-5.10;85.30;;;;;;4931070;28;20559;-72
2024/01/12 06:32:19;;;;;;;88.07;36.17;;;-5.20;85.20;;;;;;4930102;29;20226;-71
2024/01/12 06:34:45;;;;;;;103.67;38.60;;;-5.30;85.20;;;;;;4936587;28;20884;-72
2024/01/12 06:37:10;;;;;;;81.43;35.93;;;-5.30;85.20;;;;;;4929827;28;20204;-73
2024/01/12 06:39:39;;;;;;;93.10;38.33;;;-5.20;85.30;;;;;;4929243;29;20220;-73
2024/01/12 06:42:05;;;;;;;92.75;36.00;;;-5.20;85.60;;;;;;4933457;28;20335;-73
2024/01/12 06:44:30;;;;;;;93.83;37.77;;;-5.10;85.70;;;;;;4933257;29;20243;-71
2024/01/12 06:46:56;;;;;;;91.90;34.40;;;-4.90;85.90;;;;;;4933041;29;20451;-72
2024/01/12 06:49:21;;;;;;;80.70;32.67;;;-4.90;86.00;;;;;;4931759;29;20249;-72
2024/01/12 06:51:47;;;;;;;80.40;31.53;;;-4.90;85.90;;;;;;4930879;28;20205;-71
2024/01/12 06:54:13;;;;;;;77.67;31.27;;;-4.80;85.90;;;;;;4930545;29;20688;-72
2024/01/12 06:56:39;;;;;;;85.73;31.73;;;-4.90;85.20;;;;;;4929562;29;20557;-72
2024/01/12 06:59:05;;;;;;;66.88;28.92;;;-5.00;85.00;;;;;;4929402;29;20188;-71
2024/01/12 07:01:31;;;;;;;74.93;31.98;;;-5.10;85.20;;;;;;4920407;28;20235;-72
2024/01/12 07:03:57;;;;;;;95.30;37.87;;;-5.10;85.20;;;;;;4930539;28;20915;-71
2024/01/12 07:06:22;;;;;;;94.27;36.40;;;-5.10;85.20;;;;;;4924960;29;20417;-71
2024/01/12 07:08:48;;;;;;;89.67;35.80;;;-5.10;85.20;;;;;;4934507;29;20319;-71
2024/01/12 07:11:14;;;;;;;94.47;37.27;;;-5.20;85.20;;;;;;4933173;28;20201;-70
2024/01/12 07:13:39;;;;;;;84.63;34.67;;;-5.00;85.50;;;;;;4933693;28;20303;-69
2024/01/12 07:16:05;;;;;;;74.90;31.40;;;-5.10;85.50;;;;;;4945189;28;20193;-71
2024/01/12 07:18:31;;;;;;;89.77;35.57;;;-5.10;85.30;;;;;;4933619;29;20184;-69
2024/01/12 07:21:02;;;;;;;76.60;34.03;;;-5.10;85.30;;;;;;4927540;28;20468;-70
2024/01/12 07:23:30;;;;;;;82.72;30.92;;;-5.00;85.30;;;;;;4937729;29;20208;-72
2024/01/12 07:25:57;;;;;;;81.10;32.60;;;-5.00;85.20;;;;;;4937057;28;20210;-70
2024/01/12 07:28:23;;;;;;;84.03;32.85;;;-5.00;84.70;;;;;;4937628;28;20284;-71
2024/01/12 07:30:49;;;;;;;64.53;29.80;;;-5.00;84.30;;;;;;4928678;28;20215;-71
2024/01/12 07:33:14;;;;;;;76.70;32.60;;;-5.10;83.80;;;;;;4934119;29;20180;-71
2024/01/12 07:35:40;;;;;;;84.33;33.10;;;-5.10;83.80;;;;;;4931846;29;20252;-71
2024/01/12 07:38:06;;;;;;;76.13;31.97;;;-5.10;84.10;;;;;;4932896;29;20624;-71
2024/01/12 07:40:31;;;;;;;78.23;33.00;;;-5.10;84.10;;;;;;4931824;28;20208;-70
2024/01/12 07:42:57;;;;;;;73.57;32.87;;;-5.00;84.30;;;;;;4934798;29;20535;-71
2024/01/12 07:45:22;;;;;;;93.97;38.63;;;-5.00;84.30;;;;;;4928040;28;20201;-71
2024/01/12 07:47:48;;;;;;;84.50;35.70;;;-5.00;84.40;;;;;;4933447;29;20189;-71
2024/01/12 07:50:13;;;;;;;82.20;35.67;;;-5.10;84.40;;;;;;4926210;28;20212;-70
2024/01/12 07:52:39;;;;;;;83.57;33.67;;;-5.00;84.40;;;;;;4936630;29;20598;-71
2024/01/12 07:55:05;;;;;;;85.00;34.47;;;-4.90;84.70;;;;;;4934796;28;20259;-70
2024/01/12 07:57:31;;;;;;;85.15;33.55;;;-4.90;84.90;;;;;;4924054;28;20219;-72
2024/01/12 07:59:58;;;;;;;84.30;35.40;;;-4.70;85.00;;;;;;4928137;28;20236;-72
2024/01/12 08:02:23;;;;;;;87.22;33.92;;;-4.60;85.00;;;;;;4932958;29;20913;-72
2024/01/12 08:04:49;;;;;;;82.20;35.67;;;-4.50;84.90;;;;;;4931573;28;20230;-72
2024/01/12 08:07:15;;;;;;;93.13;37.53;;;-4.60;84.40;;;;;;4932862;29;20184;-72
2024/01/12 08:09:40;;;;;;;85.87;36.03;;;-4.70;84.00;;;;;;4927597;28;20189;-70
2024/01/12 08:12:06;;;;;;;82.50;34.57;;;-4.80;83.80;;;;;;4928732;28;20276;-72
2024/01/12 08:14:32;;;;;;;90.87;36.00;;;-4.80;83.80;;;;;;4928288;28;20200;-72
2024/01/12 08:16:57;;;;;;;93.13;38.07;;;-4.70;84.00;;;;;;4930835;28;20436;-72
2024/01/12 08:19:23;;;;;;;80.77;37.37;;;-4.70;84.00;;;;;;4925489;28;20487;-72
2024/01/12 08:21:49;;;;;;;90.40;37.80;;;-4.60;84.10;;;;;;4925897;28;20285;-71
2024/01/12 08:24:14;;;;;;;102.83;42.83;;;-4.40;84.00;;;;;;4929278;28;20213;-72
2024/01/12 08:26:40;;;;;;;97.77;42.40;;;-4.40;83.70;;;;;;4930860;28;20653;-71
2024/01/12 08:29:05;;;;;;;112.70;49.87;;;-4.40;83.60;;;;;;4924328;28;20196;-72
2024/01/12 08:31:32;;;;;;;109.23;42.10;;;-4.60;83.70;;;;;;4919815;28;20258;-71
2024/01/12 08:33:58;;;;;;;115.20;47.80;;;-4.60;84.10;;;;;;4927132;29;20193;-71
2024/01/12 08:36:24;;;;;;;91.65;40.17;;;-4.60;84.40;;;;;;4924161;29;20189;-74
2024/01/12 08:38:50;;;;;;;102.37;40.97;;;-4.50;84.60;;;;;;4930450;28;20185;-71
2024/01/12 08:41:16;;;;;;;101.28;41.47;;;-4.30;84.60;;;;;;4928217;28;20460;-73
2024/01/12 08:43:42;;;;;;;108.43;41.65;;;-4.20;84.70;;;;;;4931364;29;20303;-71
2024/01/12 08:46:08;;;;;;;113.50;45.47;;;-4.00;84.60;;;;;;4927593;29;20387;-70
2024/01/12 08:48:35;;;;;;;95.70;40.75;;;-4.00;84.40;;;;;;4930887;29;20177;-72
2024/01/12 08:51:01;;;;;;;102.32;43.85;;;-4.00;84.10;;;;;;4924651;28;20216;-71
2024/01/12 08:53:27;;;;;;;94.90;41.63;;;-4.00;84.00;;;;;;4931679;28;20289;-69
2024/01/12 08:55:54;;;;;;;98.78;42.53;;;-4.00;83.60;;;;;;4922586;29;20473;-71
2024/01/12 08:58:21;;;;;;;97.93;43.10;;;-4.00;83.30;;;;;;4928288;28;20192;-71
2024/01/12 09:00:46;;;;;;;114.15;46.40;;;-4.00;83.10;;;;;;4925022;28;20462;-71
2024/01/12 09:03:12;;;;;;;105.90;44.63;;;-4.00;83.00;;;;;;4931444;28;20216;-72
2024/01/12 09:05:37;;;;;;;108.30;45.43;;;-3.90;83.00;;;;;;4936588;28;20189;-69
2024/01/12 09:08:03;;;;;;;100.23;44.07;;;-3.80;82.80;;;;;;4933307;28;20181;-68
2024/01/12 09:10:29;;;;;;;112.60;44.70;;;-3.90;82.50;;;;;;4935755;28;20270;-70
2024/01/12 09:12:55;;;;;;;113.10;43.03;;;-3.90;82.40;;;;;;4939690;29;20196;-70
2024/01/12 09:15:20;;;;;;;103.03;44.70;;;-3.80;82.40;;;;;;4936957;29;20318;-71
2024/01/12 09:17:46;;;;;;;106.00;44.90;;;-3.80;82.10;;;;;;4930324;29;20184;-72
2024/01/12 09:20:11;;;;;;;108.10;45.50;;;-3.80;81.90;;;;;;4925433;28;20216;-68
2024/01/12 09:22:37;;;;;;;113.03;49.40;;;-3.70;81.80;;;;;;4927168;29;20189;-70
2024/01/12 09:25:03;;;;;;;113.60;46.97;;;-3.70;81.70;;;;;;4931312;28;20603;-72
2024/01/12 09:27:29;;;;;;;96.17;42.57;;;-3.60;81.70;;;;;;4928065;28;20221;-71
2024/01/12 09:29:55;;;;;;;120.40;46.10;;;-3.50;81.70;;;;;;4930234;28;20519;-70
2024/01/12 09:32:22;;;;;;;119.83;46.03;;;-3.50;81.50;;;;;;4927642;28;20709;-69
2024/01/12 09:34:48;;;;;;;105.30;44.75;;;-3.60;81.20;;;;;;4931622;28;20177;-70
2024/01/12 09:37:14;;;;;;;110.53;44.73;;;-3.50;81.20;;;;;;4932613;29;20188;-71
2024/01/12 09:39:39;;;;;;;109.93;48.20;;;-3.50;81.20;;;;;;4936316;28;20193;-71
2024/01/12 09:42:09;;;;;;;107.23;45.40;;;-3.40;81.40;;;;;;4934197;28;20196;-71
2024/01/12 09:44:38;;;;;;;114.07;48.35;;;-3.40;81.20;;;;;;4931320;29;20232;-72
2024/01/12 09:47:04;;;;;;;109.97;44.20;;;-3.40;81.20;;;;;;4929471;29;20189;-71
2024/01/12 09:49:32;;;;;;;105.50;43.03;;;-3.40;80.80;;;;;;4938691;29;20261;-71
2024/01/12 09:51:59;;;;;;;112.45;46.78;;;-3.30;80.90;;;;;;4933046;28;20867;-72
2024/01/12 09:54:25;;;;;;;120.00;47.20;;;-3.40;80.60;;;;;;4933084;28;20189;-72
2024/01/12 09:56:56;;;;;;;126.27;50.20;;;-3.40;80.60;;;;;;4936640;29;20188;-70
2024/01/12 09:59:22;;;;;;;102.50;44.70;;;-3.40;81.10;;;;;;4932672;29;20273;-70
2024/01/12 10:01:49;;;;;;;112.15;43.08;;;-3.20;81.20;;;;;;4930080;28;20232;-70
2024/01/12 10:04:15;;;;;;;102.82;43.35;;;-3.10;81.20;;;;;;4931790;28;20204;-71
2024/01/12 10:06:40;;;;;;;109.43;47.00;;;-2.90;81.20;;;;;;4930283;28;20590;-72
2024/01/12 10:09:07;;;;;;;102.27;43.77;;;-3.10;80.60;;;;;;4930728;28;20289;-71
2024/01/12 10:11:33;;;;;;;87.30;41.97;;;-3.10;80.60;;;;;;4933583;28;20219;-69
2024/01/12 10:13:59;;;;;;;109.50;48.90;;;-3.00;80.50;;;;;;4945380;28;20200;-72
2024/01/12 10:16:29;;;;;;;113.73;47.33;;;-3.10;80.30;;;;;;4940375;28;20173;-71
2024/01/12 10:18:56;;;;;;;110.15;46.88;;;-3.40;80.30;;;;;;4940629;28;20185;-71
2024/01/12 10:21:22;;;;;;;111.97;46.67;;;-3.50;81.10;;;;;;4934456;28;20291;-70
2024/01/12 10:23:48;;;;;;;97.53;44.17;;;-3.30;81.70;;;;;;4937444;28;20220;-71
2024/01/12 10:26:16;;;;;;;96.63;44.33;;;-3.20;81.50;;;;;;4930939;28;20235;-71
2024/01/12 10:28:42;;;;;;;106.95;42.38;;;-3.10;81.50;;;;;;4928680;28;20593;-71
2024/01/12 10:31:08;;;;;;;98.93;45.53;;;-3.00;81.40;;;;;;4936791;28;20220;-69
2024/01/12 10:33:34;;;;;;;100.13;48.13;;;-2.90;81.40;;;;;;4934054;29;20185;-71
2024/01/12 10:36:14;;;;;;;103.75;44.92;;;-2.90;80.80;;;;;;4949435;28;20207;-72
2024/01/12 10:38:44;;;;;;;99.03;45.42;;;-2.90;80.60;;;;;;5020448;22;20232;-70
2024/01/12 10:41:11;;;;;;;104.38;43.67;;;-2.70;80.60;;;;;;5015278;28;20214;-70
2024/01/12 10:43:38;;;;;;;99.85;42.80;;;-2.40;80.50;;;;;;5010737;28;20217;-72
2024/01/12 10:46:11;;;;;;;97.15;42.20;;;-2.20;79.90;;;;;;5013804;28;20208;-71
2024/01/12 10:48:46;;;;;;;92.45;41.70;;;-2.20;78.90;;;;;;5009923;28;20192;-70
2024/01/12 10:51:14;;;;;;;91.72;43.08;;;-1.90;78.70;;;;;;5014836;28;20287;-71
2024/01/12 10:53:48;;;;;;;106.00;45.97;;;-1.90;78.00;;;;;;5004827;28;20182;-70
2024/01/12 10:56:14;;;;;;;109.10;41.05;;;-1.80;77.60;;;;;;5009304;28;20781;-71
2024/01/12 10:58:44;;;;;;;95.13;40.43;;;-1.60;77.40;;;;;;5013769;28;20296;-72
2024/01/12 11:01:10;;;;;;;111.65;43.72;;;-1.70;76.70;;;;;;5010296;28;20209;-71
2024/01/12 11:03:37;;;;;;;90.53;41.22;;;-2.00;76.70;;;;;;5020209;28;20224;-71
2024/01/12 11:06:05;;;;;;;95.80;43.00;;;-2.10;77.00;;;;;;5018011;28;20182;-72
2024/01/12 11:08:30;;;;;;;100.35;42.28;;;-2.30;77.40;;;;;;5026180;28;20712;-71
2024/01/12 11:10:58;;;;;;;93.60;42.70;;;-2.10;77.80;;;;;;5010778;28;20241;-73
2024/01/12 11:13:25;;;;;;;98.03;43.00;;;-1.80;78.00;;;;;;5011299;28;20185;-72
2024/01/12 11:15:52;;;;;;;93.25;44.47;;;-2.10;77.30;;;;;;5009618;28;20254;-70
2024/01/12 11:18:19;;;;;;;91.05;44.30;;;-2.40;77.40;;;;;;5007178;28;20701;-72
2024/01/12 11:20:45;;;;;;;96.78;42.42;;;-2.90;78.60;;;;;;5003206;28;20572;-71
2024/01/12 11:23:10;;;;;;;94.43;39.50;;;-3.00;79.90;;;;;;5009570;28;20198;-71
2024/01/12 11:25:36;;;;;;;83.37;39.47;;;-2.80;80.50;;;;;;5013451;28;20452;-69
2024/01/12 11:28:02;;;;;;;91.40;41.03;;;-2.60;80.50;;;;;;5006066;28;20488;-72
2024/01/12 11:30:29;;;;;;;80.83;38.20;;;-2.50;80.00;;;;;;5010293;28;20496;-70
2024/01/12 11:33:03;;;;;;;91.72;42.08;;;-2.30;79.70;;;;;;5023239;28;20898;-70
2024/01/12 11:35:30;;;;;;;86.35;39.85;;;-2.20;79.50;;;;;;5011418;28;20197;-73
2024/01/12 11:38:02;;;;;;;78.60;37.72;;;-2.50;78.70;;;;;;5012132;28;20252;-70
2024/01/12 11:40:28;;;;;;;92.85;37.78;;;-2.50;78.70;;;;;;5012707;28;20267;-70
2024/01/12 11:42:55;;;;;;;78.72;35.22;;;-2.20;79.20;;;;;;5013245;28;20690;-69
2024/01/12 11:45:21;;;;;;;81.00;37.80;;;-2.00;78.90;;;;;;5020205;28;20290;-72
2024/01/12 11:47:46;;;;;;;81.97;36.20;;;-1.80;78.60;;;;;;5011109;28;20322;-71
2024/01/12 11:50:14;;;;;;;87.77;40.93;;;-1.70;78.00;;;;;;5010441;28;20259;-70
2024/01/12 11:52:40;;;;;;;87.32;38.33;;;-1.80;77.70;;;;;;5007715;28;20682;-73
2024/01/12 11:55:07;;;;;;;95.95;42.00;;;-2.00;77.40;;;;;;5012740;28;20194;-71
2024/01/12 11:57:37;;;;;;;78.50;38.13;;;-1.90;77.80;;;;;;5013911;28;20211;-70
2024/01/12 12:00:04;;;;;;;84.43;38.17;;;-1.90;78.10;;;;;;5009823;28;20210;-71
2024/01/12 12:02:30;;;;;;;94.43;38.95;;;-1.70;78.30;;;;;;5011755;28;20185;-73
2024/01/12 12:04:56;;;;;;;81.70;38.63;;;-1.70;77.80;;;;;;5016187;28;20593;-72
2024/01/12 12:07:26;;;;;;;81.57;38.38;;;-1.60;77.80;;;;;;5009509;28;20655;-73
2024/01/12 12:09:53;;;;;;;84.55;39.53;;;-1.40;77.60;;;;;;5019910;28;20185;-71
2024/01/12 12:12:22;;;;;;;90.38;37.28;;;-1.30;77.30;;;;;;5013053;28;20210;-71
2024/01/12 12:15:14;;;;;;;84.45;39.20;;;-1.30;76.70;;;;;;5020643;28;20215;-71
2024/01/12 12:17:46;;;;;;;91.60;39.70;;;-1.20;76.50;;;;;;5013115;28;20692;-70
2024/01/12 12:20:13;;;;;;;82.47;38.72;;;-1.40;76.20;;;;;;5013686;28;20313;-72